Time,TemperatureF,DewpointF,PressureIn,WindDirection,WindDirectionDegrees,WindSpeedMPH,WindSpeedGustMPH,Humidity,HourlyPrecipIn,Conditions,Clouds,dailyrainin,SoftwareType,DateUTC
2013-01-16 00:00:00,58.5,55.5,30.22,NW,315,1.4,1.4,90,0.00,OVC,,0.00,WeatherDisplay:10.37,2013-01-16 05:00:00,
2013-01-16 00:03:00,58.5,55.5,30.22,ESE,112,1.1,1.1,90,0.00,,,0.00,WeatherDisplay:10.37,2013-01-16 05:03:00,
2013-01-16 00:04:00,58.5,55.5,30.22,ESE,112,1.1,1.1,90,0.00,,,0.00,WeatherDisplay:10.37,2013-01-16 05:04:00,
2013-01-16 00:09:00,58.6,55.7,30.22,ESE,112,1.1,1.1,90,0.00,,,0.00,WeatherDisplay:10.37,2013-01-16 05:09:00,
2013-01-16 00:14:00,58.6,55.7,30.23,WSW,248,1.1,0.0,90,0.00,,,0.00,WeatherDisplay:10.37,2013-01-16 05:14:00,
2013-01-16 00:19:00,58.6,55.7,30.23,SSE,158,1.1,1.1,90,0.00,,,0.00,WeatherDisplay:10.37,2013-01-16 05:19:00,
2013-01-16 00:24:00,58.6,56.0,30.23,SE,135,1.1,1.4,91,0.00,,,0.00,WeatherDisplay:10.37,2013-01-16 05:24:00,
2013-01-16 00:29:00,58.8,55.9,30.23,SSW,202,1.1,1.1,90,0.00,,,0.00,WeatherDisplay:10.37,2013-01-16 05:29:00,
2013-01-16 00:34:00,58.8,55.9,30.22,SSE,158,1.1,1.1,90,0.00,,,0.00,WeatherDisplay:10.37,2013-01-16 05:34:00,
2013-01-16 00:39:00,59.0,56.1,30.23,SE,135,0.0,0.0,90,0.00,,,0.00,WeatherDisplay:10.37,2013-01-16 05:39:00,
2013-01-16 00:44:00,59.0,56.4,30.22,SSW,202,0.5,0.5,91,0.00,,,0.00,WeatherDisplay:10.37,2013-01-16 05:44:00,
2013-01-16 00:49:00,59.0,56.7,30.22,SE,135,0.5,0.5,92,0.00,,,0.00,WeatherDisplay:10.37,2013-01-16 05:49:00,
2013-01-16 00:54:00,59.0,56.1,30.22,SE,135,0.0,0.0,90,0.00,,,0.00,WeatherDisplay:10.37,2013-01-16 05:54:00,
2013-01-16 00:59:00,59.0,56.4,30.21,SSW,202,1.1,1.1,91,0.00,,,0.00,WeatherDisplay:10.37,2013-01-16 05:59:00,
2013-01-16 01:04:00,59.0,56.4,30.21,South,180,1.1,1.1,91,0.00,,,0.00,WeatherDisplay:10.37,2013-01-16 06:04:00,
2013-01-16 01:09:00,59.0,56.4,30.21,ENE,68,1.6,1.6,91,0.00,,,0.00,WeatherDisplay:10.37,2013-01-16 06:09:00,
2013-01-16 01:14:00,59.0,56.7,30.21,SSE,158,1.4,1.4,92,0.00,,,0.00,WeatherDisplay:10.37,2013-01-16 06:14:00,
2013-01-16 01:19:00,59.0,56.4,30.21,SE,135,2.3,2.3,91,0.00,,,0.00,WeatherDisplay:10.37,2013-01-16 06:19:00,
2013-01-16 01:24:00,59.0,56.4,30.21,SE,135,2.3,2.3,91,0.00,,,0.00,WeatherDisplay:10.37,2013-01-16 06:24:00,
2013-01-16 01:29:00,59.0,56.4,30.21,ENE,68,1.1,1.1,91,0.00,,,0.00,WeatherDisplay:10.37,2013-01-16 06:29:00,
2013-01-16 01:34:00,59.0,56.7,30.20,SE,135,1.1,1.1,92,0.00,,,0.00,WeatherDisplay:10.37,2013-01-16 06:34:00,
2013-01-16 01:39:00,59.0,56.7,30.20,SE,135,2.3,2.3,92,0.00,,,0.00,WeatherDisplay:10.37,2013-01-16 06:39:00,
2013-01-16 01:44:00,59.2,56.9,30.20,South,180,1.1,1.1,92,0.00,,,0.00,WeatherDisplay:10.37,2013-01-16 06:44:00,
2013-01-16 01:49:00,59.4,57.0,30.20,SSW,202,2.3,2.3,92,0.00,,,0.00,WeatherDisplay:10.37,2013-01-16 06:49:00,
2013-01-16 01:54:00,59.4,57.0,30.21,SE,135,0.5,0.5,92,0.00,,,0.00,WeatherDisplay:10.37,2013-01-16 06:54:00,
2013-01-16 01:59:00,59.4,56.7,30.21,SE,135,1.1,1.1,91,0.00,,,0.00,WeatherDisplay:10.37,2013-01-16 06:59:00,
2013-01-16 02:04:00,59.5,56.9,30.21,South,180,1.1,1.1,91,0.00,,,0.00,WeatherDisplay:10.37,2013-01-16 07:04:00,
2013-01-16 02:09:00,59.7,57.1,30.21,South,180,1.4,1.4,91,0.00,,,0.00,WeatherDisplay:10.37,2013-01-16 07:09:00,
2013-01-16 02:14:00,59.7,57.1,30.21,SSE,158,2.0,2.0,91,0.00,,,0.00,WeatherDisplay:10.37,2013-01-16 07:14:00,
2013-01-16 02:19:00,59.9,57.3,30.21,SSW,202,2.3,2.3,91,0.00,,,0.00,WeatherDisplay:10.37,2013-01-16 07:19:00,
2013-01-16 02:24:00,59.9,57.3,30.21,South,180,1.1,1.1,91,0.00,,,0.00,WeatherDisplay:10.37,2013-01-16 07:24:00,
2013-01-16 02:29:00,60.1,57.4,30.21,SE,135,0.2,0.2,91,0.00,,,0.00,WeatherDisplay:10.37,2013-01-16 07:29:00,
2013-01-16 02:34:00,60.1,57.4,30.21,SSE,158,0.5,0.5,91,0.00,,,0.00,WeatherDisplay:10.37,2013-01-16 07:34:00,
2013-01-16 02:39:00,60.1,57.4,30.21,North,0,2.3,2.3,91,0.00,,,0.00,WeatherDisplay:10.37,2013-01-16 07:39:00,
2013-01-16 02:44:00,60.1,57.4,30.21,South,180,1.1,0.0,91,0.00,,,0.00,WeatherDisplay:10.37,2013-01-16 07:44:00,
2013-01-16 02:49:00,60.1,57.4,30.21,SSW,202,1.1,1.1,91,0.00,,,0.00,WeatherDisplay:10.37,2013-01-16 07:49:00,
2013-01-16 02:54:00,60.1,57.4,30.21,SW,225,0.0,0.0,91,0.00,,,0.00,WeatherDisplay:10.37,2013-01-16 07:54:00,
2013-01-16 02:59:00,60.1,57.4,30.20,SE,135,0.0,0.0,91,0.00,,,0.00,WeatherDisplay:10.37,2013-01-16 07:59:00,
2013-01-16 03:04:00,60.1,57.1,30.20,South,180,0.0,0.0,90,0.00,,,0.00,WeatherDisplay:10.37,2013-01-16 08:04:00,
2013-01-16 03:09:00,60.1,57.1,30.20,South,180,0.0,0.0,90,0.00,,,0.00,WeatherDisplay:10.37,2013-01-16 08:09:00,
2013-01-16 03:14:00,60.1,57.1,30.20,South,180,0.0,0.0,90,0.00,,,0.00,WeatherDisplay:10.37,2013-01-16 08:14:00,
2013-01-16 03:19:00,60.1,57.1,30.19,SSE,158,0.0,0.0,90,0.00,,,0.00,WeatherDisplay:10.37,2013-01-16 08:19:00,
2013-01-16 03:24:00,59.9,57.0,30.19,ENE,68,0.0,0.0,90,0.00,,,0.00,WeatherDisplay:10.37,2013-01-16 08:24:00,
2013-01-16 03:29:00,59.9,57.0,30.19,South,180,1.1,0.0,90,0.00,,,0.00,WeatherDisplay:10.37,2013-01-16 08:29:00,
2013-01-16 03:34:00,59.7,56.8,30.19,SSW,202,0.2,0.2,90,0.00,,,0.00,WeatherDisplay:10.37,2013-01-16 08:34:00,
2013-01-16 03:39:00,59.7,56.8,30.18,East,90,0.5,0.5,90,0.00,,,0.00,WeatherDisplay:10.37,2013-01-16 08:39:00,
2013-01-16 03:44:00,59.7,56.8,30.18,SW,225,0.0,0.9,90,0.00,SCT,,0.00,WeatherDisplay:10.37,2013-01-16 08:44:00,
2013-01-16 03:49:00,59.9,57.0,30.18,SSE,158,1.1,1.1,90,0.00,SCT,,0.00,WeatherDisplay:10.37,2013-01-16 08:49:00,
2013-01-16 03:54:00,59.9,57.3,30.18,SW,225,2.3,2.3,91,0.00,SCT,,0.00,WeatherDisplay:10.37,2013-01-16 08:54:00,
2013-01-16 03:59:00,60.1,57.4,30.18,SW,225,1.1,1.1,91,0.00,SCT,,0.00,WeatherDisplay:10.37,2013-01-16 08:59:00,
2013-01-16 04:04:00,60.1,57.4,30.18,SSW,202,2.2,2.2,91,0.00,CLR,,0.00,WeatherDisplay:10.37,2013-01-16 09:04:00,
2013-01-16 04:09:00,60.3,57.6,30.18,SW,225,1.1,1.6,91,0.00,CLR,,0.00,WeatherDisplay:10.37,2013-01-16 09:09:00,
2013-01-16 04:14:00,60.4,58.1,30.18,SW,225,2.3,2.3,92,0.00,CLR,,0.00,WeatherDisplay:10.37,2013-01-16 09:14:00,
2013-01-16 04:19:00,60.8,58.5,30.17,WSW,248,2.3,2.3,92,0.00,CLR,,0.00,WeatherDisplay:10.37,2013-01-16 09:19:00,
2013-01-16 04:24:00,60.8,58.5,30.17,South,180,1.1,1.1,92,0.00,CLR,,0.00,WeatherDisplay:10.37,2013-01-16 09:24:00,
2013-01-16 04:29:00,61.2,58.8,30.17,South,180,2.3,2.3,92,0.00,CLR,,0.00,WeatherDisplay:10.37,2013-01-16 09:29:00,
2013-01-16 04:34:00,61.2,58.8,30.17,WSW,248,2.3,2.3,92,0.00,CLR,,0.00,WeatherDisplay:10.37,2013-01-16 09:34:00,
2013-01-16 04:39:00,61.3,59.0,30.17,SSE,158,2.3,2.3,92,0.00,CLR,,0.00,WeatherDisplay:10.37,2013-01-16 09:39:00,
2013-01-16 04:44:00,61.5,59.2,30.17,SSE,158,2.3,2.3,92,0.00,CLR,,0.00,WeatherDisplay:10.37,2013-01-16 09:44:00,
2013-01-16 04:49:00,61.5,59.2,30.16,SSW,202,3.5,3.5,92,0.00,CLR,,0.00,WeatherDisplay:10.37,2013-01-16 09:49:00,
2013-01-16 04:54:00,61.7,59.4,30.16,SW,225,1.1,1.1,92,0.00,CLR,,0.00,WeatherDisplay:10.37,2013-01-16 09:54:00,
2013-01-16 04:59:00,61.9,59.5,30.17,WSW,248,3.5,3.5,92,0.00,CLR,,0.00,WeatherDisplay:10.37,2013-01-16 09:59:00,
2013-01-16 05:04:00,62.1,59.7,30.17,SW,225,2.6,2.6,92,0.00,CLR,,0.00,WeatherDisplay:10.37,2013-01-16 10:04:00,
2013-01-16 05:09:00,62.1,59.7,30.16,SSW,202,1.1,1.1,92,0.00,CLR,,0.00,WeatherDisplay:10.37,2013-01-16 10:09:00,
2013-01-16 05:15:00,62.2,59.9,30.16,NE,45,1.8,1.8,92,0.00,CLR,,0.00,WeatherDisplay:10.37,2013-01-16 10:15:00,
2013-01-16 05:20:00,62.2,59.9,30.16,SSW,202,4.0,4.0,92,0.00,CLR,,0.00,WeatherDisplay:10.37,2013-01-16 10:20:00,
2013-01-16 05:25:00,62.2,59.9,30.17,SW,225,2.3,2.3,92,0.00,CLR,,0.00,WeatherDisplay:10.37,2013-01-16 10:25:00,
2013-01-16 05:30:00,62.2,59.9,30.17,SSW,202,1.1,1.1,92,0.00,CLR,,0.00,WeatherDisplay:10.37,2013-01-16 10:30:00,
2013-01-16 05:35:00,62.4,60.1,30.17,SSW,202,1.1,1.1,92,0.00,CLR,,0.00,WeatherDisplay:10.37,2013-01-16 10:35:00,
2013-01-16 05:40:00,62.2,59.9,30.17,SSE,158,1.1,1.1,92,0.00,CLR,,0.00,WeatherDisplay:10.37,2013-01-16 10:40:00,
2013-01-16 05:45:00,62.4,60.1,30.17,SW,225,1.1,1.1,92,0.00,CLR,,0.00,WeatherDisplay:10.37,2013-01-16 10:45:00,
2013-01-16 05:50:00,62.4,60.1,30.17,SW,225,1.1,1.1,92,0.00,CLR,,0.00,WeatherDisplay:10.37,2013-01-16 10:50:00,
2013-01-16 05:55:00,62.4,60.1,30.17,SW,225,1.1,1.1,92,0.00,CLR,,0.00,WeatherDisplay:10.37,2013-01-16 10:55:00,
2013-01-16 06:00:00,62.2,59.9,30.17,SSW,202,1.1,1.1,92,0.00,CLR,,0.00,WeatherDisplay:10.37,2013-01-16 11:00:00,
2013-01-16 06:05:00,62.2,59.9,30.17,SW,215,0.0,1.0,92,0.00,SCT,SCT,0.00,WeatherDisplay:10.37,2013-01-16 11:05:00,
2013-01-16 06:10:00,62.2,59.9,30.17,SW,225,0.0,0.5,92,0.00,SCT,,0.00,WeatherDisplay:10.37,2013-01-16 11:10:00,
2013-01-16 06:15:00,62.2,59.6,30.17,SSW,202,1.1,1.1,91,0.00,SCT,,0.00,WeatherDisplay:10.37,2013-01-16 11:15:00,
2013-01-16 06:20:00,62.2,59.6,30.17,SSW,202,0.5,0.5,91,0.00,SCT,,0.00,WeatherDisplay:10.37,2013-01-16 11:20:00,
2013-01-16 06:25:00,62.2,59.6,30.17,South,181,0.0,0.0,91,0.00,SCT,SCT,0.00,WeatherDisplay:10.37,2013-01-16 11:25:00,
2013-01-16 06:30:00,62.1,59.4,30.17,SSE,161,1.0,1.0,91,0.00,SCT,SCT,0.00,WeatherDisplay:10.37,2013-01-16 11:30:00,
2013-01-16 06:35:00,62.0,59.3,30.17,SSE,162,0.0,1.0,91,0.00,SCT,SCT,0.00,WeatherDisplay:10.37,2013-01-16 11:35:00,
2013-01-16 06:40:00,61.9,59.2,30.18,SSE,161,0.0,1.0,91,0.00,SCT,SCT,0.00,WeatherDisplay:10.37,2013-01-16 11:40:00,
2013-01-16 06:45:00,61.9,59.2,30.17,SSE,160,0.0,0.0,91,0.00,SCT,SCT,0.00,WeatherDisplay:10.37,2013-01-16 11:45:00,
2013-01-16 06:50:00,61.9,59.2,30.17,South,180,2.3,2.3,91,0.00,SCT,,0.00,WeatherDisplay:10.37,2013-01-16 11:50:00,
2013-01-16 06:55:00,61.8,59.1,30.18,SSW,202,1.0,2.0,91,0.00,SCT,SCT,0.00,WeatherDisplay:10.37,2013-01-16 11:55:00,
2013-01-16 07:00:00,61.9,59.2,30.18,SW,225,1.1,1.6,91,0.00,SCT,,0.00,WeatherDisplay:10.37,2013-01-16 12:00:00,
2013-01-16 07:05:00,61.9,59.2,30.18,SW,225,1.1,1.1,91,0.00,CLR,,0.00,WeatherDisplay:10.37,2013-01-16 12:05:00,
2013-01-16 07:10:00,61.9,59.2,30.18,SW,225,2.3,2.3,91,0.00,CLR,,0.00,WeatherDisplay:10.37,2013-01-16 12:10:00,
2013-01-16 07:15:00,61.9,59.2,30.18,SW,225,3.5,3.5,91,0.00,CLR,,0.00,WeatherDisplay:10.37,2013-01-16 12:15:00,
2013-01-16 07:20:00,62.1,59.7,30.18,SW,225,3.8,3.8,92,0.00,CLR,,0.00,WeatherDisplay:10.37,2013-01-16 12:20:00,
2013-01-16 07:25:00,62.1,59.7,30.18,SSE,158,3.5,3.5,92,0.00,CLR,,0.00,WeatherDisplay:10.37,2013-01-16 12:25:00,
2013-01-16 07:30:00,62.2,59.9,30.18,SSW,202,2.3,2.3,92,0.00,CLR,,0.00,WeatherDisplay:10.37,2013-01-16 12:30:00,
2013-01-16 07:35:00,62.2,59.9,30.19,South,180,1.8,1.8,92,0.00,CLR,,0.00,WeatherDisplay:10.37,2013-01-16 12:35:00,
2013-01-16 07:40:00,62.2,59.9,30.18,SW,225,1.1,1.1,92,0.00,CLR,,0.00,WeatherDisplay:10.37,2013-01-16 12:40:00,
2013-01-16 07:45:00,62.4,60.1,30.19,SW,225,2.3,2.3,92,0.00,CLR,,0.00,WeatherDisplay:10.37,2013-01-16 12:45:00,
2013-01-16 07:50:00,62.4,60.1,30.18,SW,225,1.1,1.1,92,0.00,CLR,,0.00,WeatherDisplay:10.37,2013-01-16 12:50:00,
2013-01-16 07:55:00,62.6,60.2,30.18,SSE,158,1.1,1.1,92,0.00,CLR,,0.00,WeatherDisplay:10.37,2013-01-16 12:55:00,
2013-01-16 08:00:00,62.6,60.2,30.19,SSE,158,2.3,2.3,92,0.00,CLR,,0.00,WeatherDisplay:10.37,2013-01-16 13:00:00,
2013-01-16 08:05:00,62.8,60.4,30.19,SSW,202,2.3,2.3,92,0.00,CLR,,0.00,WeatherDisplay:10.37,2013-01-16 13:05:00,
2013-01-16 08:10:00,63.0,60.6,30.19,SSW,202,3.5,3.5,92,0.00,CLR,,0.00,WeatherDisplay:10.37,2013-01-16 13:10:00,
2013-01-16 08:15:00,63.3,61.0,30.19,SW,225,2.4,2.4,92,0.00,CLR,,0.00,WeatherDisplay:10.37,2013-01-16 13:15:00,
2013-01-16 08:20:00,63.5,61.1,30.19,SSW,202,2.3,2.3,92,0.00,CLR,,0.00,WeatherDisplay:10.37,2013-01-16 13:20:00,
2013-01-16 08:25:00,63.7,61.3,30.19,SW,225,2.4,2.4,92,0.00,CLR,,0.00,WeatherDisplay:10.37,2013-01-16 13:25:00,
2013-01-16 08:30:00,64.0,61.7,30.19,SSW,202,3.5,3.5,92,0.00,CLR,,0.00,WeatherDisplay:10.37,2013-01-16 13:30:00,
2013-01-16 08:35:00,64.2,61.8,30.19,SE,135,4.6,4.6,92,0.00,CLR,,0.00,WeatherDisplay:10.37,2013-01-16 13:35:00,
2013-01-16 08:40:00,64.6,62.2,30.20,SSE,158,2.6,2.6,92,0.00,CLR,,0.00,WeatherDisplay:10.37,2013-01-16 13:40:00,
2013-01-16 08:45:00,64.9,62.6,30.20,SW,225,5.8,5.8,92,0.00,CLR,,0.00,WeatherDisplay:10.37,2013-01-16 13:45:00,
2013-01-16 08:50:00,65.1,62.7,30.20,WSW,248,5.4,5.4,92,0.00,CLR,,0.00,WeatherDisplay:10.37,2013-01-16 13:50:00,
2013-01-16 08:55:00,65.5,63.1,30.20,South,180,2.3,2.3,92,0.00,CLR,,0.00,WeatherDisplay:10.37,2013-01-16 13:55:00,
2013-01-16 09:00:00,65.8,63.5,30.21,SSE,158,3.5,3.5,92,0.00,CLR,,0.00,WeatherDisplay:10.37,2013-01-16 14:00:00,
2013-01-16 09:05:00,66.2,63.8,30.21,SW,225,4.9,4.9,92,0.00,BKN,,0.00,WeatherDisplay:10.37,2013-01-16 14:05:00,
2013-01-16 09:10:00,66.4,64.3,30.21,SW,225,4.6,4.6,93,0.00,BKN,,0.00,WeatherDisplay:10.37,2013-01-16 14:10:00,
2013-01-16 09:15:00,66.6,64.5,30.21,South,180,4.7,4.7,93,0.00,BKN,,0.00,WeatherDisplay:10.37,2013-01-16 14:15:00,
2013-01-16 09:20:00,66.9,64.8,30.21,SSW,202,3.5,3.5,93,0.00,BKN,,0.00,WeatherDisplay:10.37,2013-01-16 14:20:00,
2013-01-16 09:25:00,67.1,64.7,30.21,West,270,4.6,4.6,92,0.00,BKN,,0.00,WeatherDisplay:10.37,2013-01-16 14:25:00,
2013-01-16 09:30:00,67.5,65.1,30.21,SSW,202,6.9,6.9,92,0.00,BKN,,0.00,WeatherDisplay:10.37,2013-01-16 14:30:00,
2013-01-16 09:35:00,67.6,64.9,30.21,South,180,5.8,5.8,91,0.00,BKN,,0.00,WeatherDisplay:10.37,2013-01-16 14:35:00,
2013-01-16 09:40:00,67.8,65.1,30.21,WSW,248,4.6,4.6,91,0.00,BKN,,0.00,WeatherDisplay:10.37,2013-01-16 14:40:00,
2013-01-16 09:45:00,68.4,65.6,30.21,SW,225,6.2,6.2,91,0.00,BKN,,0.00,WeatherDisplay:10.37,2013-01-16 14:45:00,
2013-01-16 09:50:00,68.7,66.0,30.21,South,180,5.8,5.8,91,0.00,BKN,,0.00,WeatherDisplay:10.37,2013-01-16 14:50:00,
2013-01-16 09:55:00,69.1,66.0,30.21,SW,225,5.8,5.8,90,0.00,SCT,,0.00,WeatherDisplay:10.37,2013-01-16 14:55:00,
2013-01-16 10:00:00,69.4,66.4,30.21,ESE,112,5.8,5.8,90,0.00,SCT,,0.00,WeatherDisplay:10.37,2013-01-16 15:00:00,
2013-01-16 10:05:00,70.0,66.6,30.20,West,270,4.7,4.7,89,0.00,SCT,,0.00,WeatherDisplay:10.37,2013-01-16 15:05:00,
2013-01-16 10:10:00,70.2,66.4,30.20,SW,225,5.8,5.8,88,0.00,SCT,,0.00,WeatherDisplay:10.37,2013-01-16 15:10:00,
2013-01-16 10:15:00,70.5,66.8,30.20,SW,225,4.6,4.6,88,0.00,FEW,,0.00,WeatherDisplay:10.37,2013-01-16 15:15:00,
2013-01-16 10:20:00,70.9,66.8,30.20,SW,225,6.9,6.9,87,0.00,FEW,,0.00,WeatherDisplay:10.37,2013-01-16 15:20:00,
2013-01-16 10:25:00,71.4,67.0,30.20,SSW,202,5.2,5.2,86,0.00,FEW,,0.00,WeatherDisplay:10.37,2013-01-16 15:25:00,
2013-01-16 10:30:00,71.8,67.0,30.20,South,180,6.9,6.9,85,0.00,FEW,,0.00,WeatherDisplay:10.37,2013-01-16 15:30:00,
2013-01-16 10:35:00,72.3,67.2,30.20,WSW,248,8.3,8.3,84,0.00,FEW,,0.00,WeatherDisplay:10.37,2013-01-16 15:35:00,
2013-01-16 10:40:00,72.5,67.0,30.20,SW,225,8.1,8.1,83,0.00,FEW,,0.00,WeatherDisplay:10.37,2013-01-16 15:40:00,
2013-01-16 10:45:00,72.7,67.2,30.20,WSW,248,6.4,6.4,83,0.00,FEW,,0.00,WeatherDisplay:10.37,2013-01-16 15:45:00,
2013-01-16 10:50:00,72.9,67.4,30.20,SW,225,8.5,8.5,83,0.00,FEW,,0.00,WeatherDisplay:10.37,2013-01-16 15:50:00,
2013-01-16 10:55:00,73.0,67.2,30.19,SW,225,5.9,5.9,82,0.00,FEW,,0.00,WeatherDisplay:10.37,2013-01-16 15:55:00,
2013-01-16 11:00:00,73.4,67.2,30.19,West,270,6.9,6.9,81,0.00,FEW,,0.00,WeatherDisplay:10.37,2013-01-16 16:00:00,
2013-01-16 11:05:00,73.6,67.0,30.18,SW,225,9.2,9.2,80,0.00,CLR,,0.00,WeatherDisplay:10.37,2013-01-16 16:05:00,
2013-01-16 11:10:00,73.8,66.8,30.18,SW,225,8.1,8.1,79,0.00,CLR,,0.00,WeatherDisplay:10.37,2013-01-16 16:10:00,
2013-01-16 11:15:00,74.1,67.2,30.18,WSW,248,5.8,5.8,79,0.00,CLR,,0.00,WeatherDisplay:10.37,2013-01-16 16:15:00,
2013-01-16 11:20:00,74.3,67.0,30.18,South,180,5.8,5.8,78,0.00,CLR,,0.00,WeatherDisplay:10.37,2013-01-16 16:20:00,
2013-01-16 11:25:00,74.5,67.2,30.18,SSE,158,5.8,5.8,78,0.00,CLR,,0.00,WeatherDisplay:10.37,2013-01-16 16:25:00,
2013-01-16 11:30:00,74.8,67.1,30.17,WSW,248,5.8,5.8,77,0.00,CLR,,0.00,WeatherDisplay:10.37,2013-01-16 16:30:00,
2013-01-16 11:35:00,75.0,66.6,30.17,WSW,248,8.1,8.1,75,0.00,CLR,,0.00,WeatherDisplay:10.37,2013-01-16 16:35:00,
2013-01-16 11:40:00,75.2,66.7,30.17,WSW,248,5.8,5.8,75,0.00,CLR,,0.00,WeatherDisplay:10.37,2013-01-16 16:40:00,
2013-01-16 11:45:00,75.6,67.1,30.16,SE,135,3.5,3.5,75,0.00,CLR,,0.00,WeatherDisplay:10.37,2013-01-16 16:45:00,
2013-01-16 11:50:00,75.9,67.0,30.16,South,180,8.5,8.5,74,0.00,CLR,,0.00,WeatherDisplay:10.37,2013-01-16 16:50:00,
2013-01-16 11:55:00,76.3,67.0,30.16,SSW,202,9.2,9.2,73,0.00,CLR,,0.00,WeatherDisplay:10.37,2013-01-16 16:55:00,
2013-01-16 12:00:00,76.3,67.0,30.16,SSW,202,5.8,5.8,73,0.00,CLR,,0.00,WeatherDisplay:10.37,2013-01-16 17:00:00,
2013-01-16 12:05:00,76.3,66.6,30.15,SSW,202,8.1,8.1,72,0.00,CLR,,0.00,WeatherDisplay:10.37,2013-01-16 17:05:00,
2013-01-16 12:10:00,76.5,66.8,30.15,SSE,158,5.8,7.8,72,0.00,CLR,,0.00,WeatherDisplay:10.37,2013-01-16 17:10:00,
2013-01-16 12:15:00,76.5,66.8,30.15,WSW,248,8.1,8.1,72,0.00,CLR,,0.00,WeatherDisplay:10.37,2013-01-16 17:15:00,
2013-01-16 12:20:00,76.5,66.4,30.15,SSW,202,8.1,8.1,71,0.00,CLR,,0.00,WeatherDisplay:10.37,2013-01-16 17:20:00,
2013-01-16 12:25:00,76.6,66.5,30.15,SW,225,9.7,9.7,71,0.00,CLR,,0.00,WeatherDisplay:10.37,2013-01-16 17:25:00,
2013-01-16 12:30:00,76.8,66.3,30.15,SSW,202,5.8,6.2,70,0.00,CLR,,0.00,WeatherDisplay:10.37,2013-01-16 17:30:00,
2013-01-16 12:35:00,77.0,66.5,30.15,SE,135,9.2,9.2,70,0.00,CLR,,0.00,WeatherDisplay:10.37,2013-01-16 17:35:00,
2013-01-16 12:40:00,77.2,66.2,30.14,WSW,248,9.2,9.2,69,0.00,CLR,,0.00,WeatherDisplay:10.37,2013-01-16 17:40:00,
2013-01-16 12:45:00,77.2,65.8,30.14,SE,135,8.1,8.1,68,0.00,CLR,,0.00,WeatherDisplay:10.37,2013-01-16 17:45:00,
2013-01-16 12:50:00,77.4,66.0,30.14,WSW,248,8.1,8.1,68,0.00,CLR,,0.00,WeatherDisplay:10.37,2013-01-16 17:50:00,
2013-01-16 12:55:00,77.4,65.5,30.14,West,270,10.4,10.4,67,0.00,CLR,,0.00,WeatherDisplay:10.37,2013-01-16 17:55:00,
2013-01-16 13:00:00,77.4,65.5,30.13,SW,225,11.4,11.4,67,0.00,CLR,,0.00,WeatherDisplay:10.37,2013-01-16 18:00:00,
2013-01-16 13:05:00,77.2,65.4,30.13,SSW,202,8.7,8.7,67,0.00,CLR,,0.00,WeatherDisplay:10.37,2013-01-16 18:05:00,
2013-01-16 13:10:00,77.2,64.9,30.14,SW,225,13.0,13.0,66,0.00,CLR,,0.00,WeatherDisplay:10.37,2013-01-16 18:10:00,
2013-01-16 13:15:00,77.2,64.9,30.13,West,270,6.9,8.5,66,0.00,CLR,,0.00,WeatherDisplay:10.37,2013-01-16 18:15:00,
2013-01-16 13:20:00,77.4,65.5,30.13,WSW,248,9.2,9.2,67,0.00,CLR,,0.00,WeatherDisplay:10.37,2013-01-16 18:20:00,
2013-01-16 13:25:00,77.4,65.1,30.13,WSW,248,9.4,9.4,66,0.00,CLR,,0.00,WeatherDisplay:10.37,2013-01-16 18:25:00,
2013-01-16 13:30:00,77.5,65.3,30.13,SSW,202,8.1,8.1,66,0.00,CLR,,0.00,WeatherDisplay:10.37,2013-01-16 18:30:00,
2013-01-16 13:35:00,77.5,65.3,30.13,SSW,202,11.4,11.4,66,0.00,CLR,,0.00,WeatherDisplay:10.37,2013-01-16 18:35:00,
2013-01-16 13:40:00,77.7,65.5,30.12,SSE,158,8.1,8.1,66,0.00,CLR,,0.00,WeatherDisplay:10.37,2013-01-16 18:40:00,
2013-01-16 13:45:00,77.5,64.8,30.12,SSW,202,8.1,8.1,65,0.00,CLR,,0.00,WeatherDisplay:10.37,2013-01-16 18:45:00,
2013-01-16 13:50:00,77.7,65.0,30.12,SW,225,9.2,9.2,65,0.00,CLR,,0.00,WeatherDisplay:10.37,2013-01-16 18:50:00,
2013-01-16 13:55:00,77.7,65.0,30.12,WNW,292,9.2,9.2,65,0.00,CLR,,0.00,WeatherDisplay:10.37,2013-01-16 18:55:00,
2013-01-16 14:01:00,77.5,64.8,30.12,SSW,202,11.8,11.8,65,0.00,CLR,,0.00,WeatherDisplay:10.37,2013-01-16 19:01:00,
2013-01-16 14:06:00,77.5,64.8,30.11,NW,315,5.8,5.8,65,0.00,CLR,,0.00,WeatherDisplay:10.37,2013-01-16 19:06:00,
2013-01-16 14:11:00,77.9,64.7,30.12,SSW,202,12.7,12.7,64,0.00,CLR,,0.00,WeatherDisplay:10.37,2013-01-16 19:11:00,
2013-01-16 14:16:00,78.1,65.4,30.12,SW,225,5.8,5.8,65,0.00,FEW,,0.00,WeatherDisplay:10.37,2013-01-16 19:16:00,
2013-01-16 14:21:00,78.1,65.4,30.11,SE,135,8.1,8.1,65,0.00,FEW,,0.00,WeatherDisplay:10.37,2013-01-16 19:21:00,
2013-01-16 14:26:00,78.3,65.1,30.11,WSW,248,8.1,8.1,64,0.00,FEW,,0.00,WeatherDisplay:10.37,2013-01-16 19:26:00,
2013-01-16 14:31:00,78.3,64.6,30.11,West,270,10.4,10.4,63,0.00,FEW,,0.00,WeatherDisplay:10.37,2013-01-16 19:31:00,
2013-01-16 14:36:00,78.1,64.9,30.11,SW,225,8.3,8.3,64,0.00,FEW,,0.00,WeatherDisplay:10.37,2013-01-16 19:36:00,
2013-01-16 14:41:00,78.1,64.9,30.11,SSW,202,5.8,8.5,64,0.00,FEW,,0.00,WeatherDisplay:10.37,2013-01-16 19:41:00,
2013-01-16 14:46:00,77.9,64.7,30.11,SSW,202,4.6,4.6,64,0.00,FEW,,0.00,WeatherDisplay:10.37,2013-01-16 19:46:00,
2013-01-16 14:51:00,77.9,64.7,30.11,SSW,202,4.6,4.6,64,0.00,FEW,,0.00,WeatherDisplay:10.37,2013-01-16 19:51:00,
2013-01-16 14:56:00,77.7,64.6,30.11,South,180,4.6,4.6,64,0.00,FEW,,0.00,WeatherDisplay:10.37,2013-01-16 19:56:00,
2013-01-16 15:01:00,77.7,64.6,30.12,South,180,5.8,6.0,64,0.00,FEW,,0.00,WeatherDisplay:10.37,2013-01-16 20:01:00,
2013-01-16 15:06:00,77.7,64.6,30.12,South,180,5.8,5.8,64,0.00,CLR,,0.00,WeatherDisplay:10.37,2013-01-16 20:06:00,
2013-01-16 15:11:00,77.7,64.6,30.12,SSE,158,8.1,8.1,64,0.00,CLR,,0.00,WeatherDisplay:10.37,2013-01-16 20:11:00,
2013-01-16 15:16:00,77.7,64.6,30.12,ENE,68,9.2,9.2,64,0.00,CLR,,0.00,WeatherDisplay:10.37,2013-01-16 20:16:00,
2013-01-16 15:21:00,77.7,64.6,30.12,South,180,5.8,5.8,64,0.00,CLR,,0.00,WeatherDisplay:10.37,2013-01-16 20:21:00,
2013-01-16 15:26:00,77.5,64.4,30.12,SW,225,5.8,5.8,64,0.00,CLR,,0.00,WeatherDisplay:10.37,2013-01-16 20:26:00,
2013-01-16 15:31:00,77.4,64.2,30.12,WSW,248,5.8,5.8,64,0.00,CLR,,0.00,WeatherDisplay:10.37,2013-01-16 20:31:00,
2013-01-16 15:36:00,77.4,64.2,30.12,SW,225,5.6,5.6,64,0.00,CLR,,0.00,WeatherDisplay:10.37,2013-01-16 20:36:00,
2013-01-16 15:41:00,77.2,64.5,30.12,SSW,202,8.1,8.1,65,0.00,CLR,,0.00,WeatherDisplay:10.37,2013-01-16 20:41:00,
2013-01-16 15:46:00,77.2,64.5,30.12,SW,225,4.6,4.6,65,0.00,CLR,,0.00,WeatherDisplay:10.37,2013-01-16 20:46:00,
2013-01-16 15:51:00,77.0,63.9,30.12,SSW,202,6.2,6.2,64,0.00,CLR,,0.00,WeatherDisplay:10.37,2013-01-16 20:51:00,
2013-01-16 15:56:00,76.8,63.7,30.12,SE,135,5.8,5.8,64,0.00,CLR,,0.00,WeatherDisplay:10.37,2013-01-16 20:56:00,
2013-01-16 16:01:00,76.6,64.0,30.12,SSW,202,4.6,4.6,65,0.00,CLR,,0.00,WeatherDisplay:10.37,2013-01-16 21:01:00,
2013-01-16 16:06:00,76.6,64.0,30.12,SSW,202,7.4,7.4,65,0.00,CLR,,0.00,WeatherDisplay:10.37,2013-01-16 21:06:00,
2013-01-16 16:11:00,76.3,63.6,30.12,WSW,248,4.6,4.6,65,0.00,CLR,,0.00,WeatherDisplay:10.37,2013-01-16 21:11:00,
2013-01-16 16:16:00,76.3,63.6,30.12,SW,225,4.6,4.6,65,0.00,CLR,,0.00,WeatherDisplay:10.37,2013-01-16 21:16:00,
2013-01-16 16:21:00,76.1,63.9,30.12,South,180,3.5,3.5,66,0.00,CLR,,0.00,WeatherDisplay:10.37,2013-01-16 21:21:00,
2013-01-16 16:26:00,75.9,63.7,30.12,North,0,4.6,4.6,66,0.00,CLR,,0.00,WeatherDisplay:10.37,2013-01-16 21:26:00,
2013-01-16 16:31:00,75.9,63.7,30.13,WNW,292,2.3,2.3,66,0.00,CLR,,0.00,WeatherDisplay:10.37,2013-01-16 21:31:00,
2013-01-16 16:36:00,75.6,63.4,30.13,WSW,248,2.3,2.3,66,0.00,CLR,,0.00,WeatherDisplay:10.37,2013-01-16 21:36:00,
2013-01-16 16:41:00,75.4,63.2,30.13,SSE,158,2.3,2.3,66,0.00,CLR,,0.00,WeatherDisplay:10.37,2013-01-16 21:41:00,
2013-01-16 16:46:00,75.2,63.1,30.13,SW,225,4.6,4.6,66,0.00,CLR,,0.00,WeatherDisplay:10.37,2013-01-16 21:46:00,
2013-01-16 16:51:00,74.8,62.7,30.13,SW,225,5.8,5.8,66,0.00,CLR,,0.00,WeatherDisplay:10.37,2013-01-16 21:51:00,
2013-01-16 16:56:00,74.5,62.4,30.14,SW,225,3.5,3.5,66,0.00,CLR,,0.00,WeatherDisplay:10.37,2013-01-16 21:56:00,
2013-01-16 17:01:00,74.1,62.5,30.14,WSW,248,2.3,2.3,67,0.00,CLR,,0.00,WeatherDisplay:10.37,2013-01-16 22:01:00,
2013-01-16 17:06:00,73.8,62.1,30.14,SW,225,2.3,2.3,67,0.00,CLR,,0.00,WeatherDisplay:10.37,2013-01-16 22:06:00,
2013-01-16 17:11:00,73.6,62.4,30.14,SSE,158,2.3,2.4,68,0.00,CLR,,0.00,WeatherDisplay:10.37,2013-01-16 22:11:00,
2013-01-16 17:16:00,73.4,62.2,30.14,SW,225,2.3,2.3,68,0.00,CLR,,0.00,WeatherDisplay:10.37,2013-01-16 22:16:00,
2013-01-16 17:21:00,73.0,61.9,30.14,SSW,202,5.8,5.8,68,0.00,CLR,,0.00,WeatherDisplay:10.37,2013-01-16 22:21:00,
2013-01-16 17:26:00,72.7,61.5,30.14,SSE,158,4.6,4.6,68,0.00,CLR,,0.00,WeatherDisplay:10.37,2013-01-16 22:26:00,
2013-01-16 17:31:00,72.3,61.6,30.14,West,270,2.3,2.3,69,0.00,CLR,,0.00,WeatherDisplay:10.37,2013-01-16 22:31:00,
2013-01-16 17:36:00,72.1,61.4,30.14,WSW,248,3.5,3.5,69,0.00,CLR,,0.00,WeatherDisplay:10.37,2013-01-16 22:36:00,
2013-01-16 17:41:00,71.8,61.1,30.14,SW,225,6.0,6.0,69,0.00,CLR,,0.00,WeatherDisplay:10.37,2013-01-16 22:41:00,
2013-01-16 17:46:00,71.4,60.7,30.14,SSW,202,4.6,4.6,69,0.00,CLR,,0.00,WeatherDisplay:10.37,2013-01-16 22:46:00,
2013-01-16 17:51:00,71.2,60.5,30.14,WSW,248,2.3,2.4,69,0.00,CLR,,0.00,WeatherDisplay:10.37,2013-01-16 22:51:00,
2013-01-16 17:56:00,70.9,60.2,30.15,SSW,202,4.6,4.6,69,0.00,CLR,,0.00,WeatherDisplay:10.37,2013-01-16 22:56:00,
2013-01-16 18:01:00,70.7,60.4,30.14,SW,225,3.5,3.5,70,0.00,CLR,,0.00,WeatherDisplay:10.37,2013-01-16 23:01:00,
2013-01-16 18:06:00,70.5,60.3,30.15,SW,225,3.5,3.5,70,0.00,CLR,,0.00,WeatherDisplay:10.37,2013-01-16 23:06:00,
2013-01-16 18:11:00,70.2,59.9,30.15,WSW,248,4.6,4.6,70,0.00,CLR,,0.00,WeatherDisplay:10.37,2013-01-16 23:11:00,
2013-01-16 18:16:00,70.0,59.7,30.15,SW,225,3.8,3.8,70,0.00,CLR,,0.00,WeatherDisplay:10.37,2013-01-16 23:16:00,
2013-01-16 18:21:00,69.8,60.0,30.15,NW,315,3.5,3.5,71,0.00,CLR,,0.00,WeatherDisplay:10.37,2013-01-16 23:21:00,
2013-01-16 18:26:00,69.4,59.6,30.15,SE,135,3.5,3.5,71,0.00,CLR,,0.00,WeatherDisplay:10.37,2013-01-16 23:26:00,
2013-01-16 18:31:00,69.4,59.6,30.15,SSW,202,3.5,3.5,71,0.00,CLR,,0.00,WeatherDisplay:10.37,2013-01-16 23:31:00,
2013-01-16 18:36:00,69.1,59.3,30.15,West,270,4.6,4.6,71,0.00,CLR,,0.00,WeatherDisplay:10.37,2013-01-16 23:36:00,
2013-01-16 18:41:00,68.9,59.5,30.16,WNW,292,2.4,2.4,72,0.00,CLR,,0.00,WeatherDisplay:10.37,2013-01-16 23:41:00,
2013-01-16 18:46:00,68.7,59.3,30.16,WNW,292,2.3,2.3,72,0.00,CLR,,0.00,WeatherDisplay:10.37,2013-01-16 23:46:00,
2013-01-16 18:51:00,68.4,59.0,30.16,WSW,248,5.8,5.8,72,0.00,CLR,,0.00,WeatherDisplay:10.37,2013-01-16 23:51:00,
2013-01-16 18:56:00,68.2,58.8,30.16,SSW,202,2.6,2.6,72,0.00,CLR,,0.00,WeatherDisplay:10.37,2013-01-16 23:56:00,
2013-01-16 19:01:00,68.0,59.0,30.16,WSW,248,3.5,3.5,73,0.00,CLR,,0.00,WeatherDisplay:10.37,2013-01-17 00:01:00,
2013-01-16 19:06:00,67.8,59.2,30.16,SW,225,3.6,3.6,74,0.00,CLR,,0.00,WeatherDisplay:10.37,2013-01-17 00:06:00,
2013-01-16 19:11:00,67.6,59.1,30.16,WSW,248,2.3,2.3,74,0.00,CLR,,0.00,WeatherDisplay:10.37,2013-01-17 00:11:00,
2013-01-16 19:16:00,67.5,58.9,30.16,SW,225,2.3,2.3,74,0.00,CLR,,0.00,WeatherDisplay:10.37,2013-01-17 00:16:00,
2013-01-16 19:21:00,67.3,58.7,30.16,WSW,248,2.3,2.3,74,0.00,CLR,,0.00,WeatherDisplay:10.37,2013-01-17 00:21:00,
2013-01-16 19:26:00,67.3,58.7,30.16,WSW,248,2.3,2.3,74,0.00,CLR,,0.00,WeatherDisplay:10.37,2013-01-17 00:26:00,
2013-01-16 19:31:00,67.1,58.5,30.16,SW,225,1.1,1.1,74,0.00,CLR,,0.00,WeatherDisplay:10.37,2013-01-17 00:31:00,
2013-01-16 19:36:00,67.1,58.5,30.16,South,180,2.2,2.2,74,0.00,CLR,,0.00,WeatherDisplay:10.37,2013-01-17 00:36:00,
2013-01-16 19:41:00,66.9,58.4,30.16,SSW,202,3.5,3.5,74,0.00,CLR,,0.00,WeatherDisplay:10.37,2013-01-17 00:41:00,
2013-01-16 19:46:00,66.9,58.7,30.16,WNW,292,1.1,1.1,75,0.00,CLR,,0.00,WeatherDisplay:10.37,2013-01-17 00:46:00,
2013-01-16 19:51:00,66.7,58.6,30.16,NW,315,2.3,2.3,75,0.00,CLR,,0.00,WeatherDisplay:10.37,2013-01-17 00:51:00,
2013-01-16 19:56:00,66.6,58.4,30.17,WSW,248,2.3,2.3,75,0.00,CLR,,0.00,WeatherDisplay:10.37,2013-01-17 00:56:00,
2013-01-16 20:01:00,66.6,58.4,30.16,WSW,248,2.3,2.3,75,0.00,CLR,,0.00,WeatherDisplay:10.37,2013-01-17 01:01:00,
2013-01-16 20:06:00,66.4,58.2,30.17,WSW,248,1.1,1.1,75,0.00,CLR,,0.00,WeatherDisplay:10.37,2013-01-17 01:06:00,
2013-01-16 20:11:00,66.2,58.4,30.17,NW,315,1.1,1.1,76,0.00,CLR,,0.00,WeatherDisplay:10.37,2013-01-17 01:11:00,
2013-01-16 20:16:00,66.0,58.2,30.17,NNE,22,0.0,0.0,76,0.00,CLR,,0.00,WeatherDisplay:10.37,2013-01-17 01:16:00,
2013-01-16 20:21:00,65.8,58.1,30.16,West,270,3.3,3.3,76,0.00,CLR,,0.00,WeatherDisplay:10.37,2013-01-17 01:21:00,
2013-01-16 20:26:00,65.7,57.9,30.17,SW,225,2.3,2.3,76,0.00,CLR,,0.00,WeatherDisplay:10.37,2013-01-17 01:26:00,
2013-01-16 20:31:00,65.7,58.3,30.17,South,180,1.1,1.1,77,0.00,CLR,,0.00,WeatherDisplay:10.37,2013-01-17 01:31:00,
2013-01-16 20:36:00,65.5,58.1,30.17,WSW,248,1.1,1.1,77,0.00,CLR,,0.00,WeatherDisplay:10.37,2013-01-17 01:36:00,
2013-01-16 20:41:00,65.3,57.9,30.17,WSW,248,1.1,1.1,77,0.00,CLR,,0.00,WeatherDisplay:10.37,2013-01-17 01:41:00,
2013-01-16 20:46:00,65.3,57.9,30.17,SW,225,1.1,1.1,77,0.00,CLR,,0.00,WeatherDisplay:10.37,2013-01-17 01:46:00,
2013-01-16 20:51:00,65.1,57.7,30.17,SSW,202,1.1,1.1,77,0.00,CLR,,0.00,WeatherDisplay:10.37,2013-01-17 01:51:00,
2013-01-16 21:11:00,64.8,57.7,30.17,South,180,1.1,1.1,78,0.00,CLR,,0.00,WeatherDisplay:10.37,2013-01-17 02:11:00,
2013-01-16 21:16:00,64.6,57.6,30.16,SW,225,1.1,1.1,78,0.00,CLR,,0.00,WeatherDisplay:10.37,2013-01-17 02:16:00,
2013-01-16 21:21:00,64.4,57.4,30.16,SSW,202,2.3,2.3,78,0.00,CLR,,0.00,WeatherDisplay:10.37,2013-01-17 02:21:00,
2013-01-16 21:34:00,64.2,57.6,30.16,West,270,1.1,0.0,79,0.00,CLR,,0.00,WeatherDisplay:10.37,2013-01-17 02:34:00,
2013-01-16 21:39:00,64.2,57.6,30.16,West,270,0.0,0.0,79,0.00,CLR,,0.00,WeatherDisplay:10.37,2013-01-17 02:39:00,
2013-01-16 21:44:00,64.2,57.6,30.16,West,270,0.0,0.0,79,0.00,CLR,,0.00,WeatherDisplay:10.37,2013-01-17 02:44:00,
2013-01-16 21:49:00,64.2,57.6,30.16,West,270,0.0,0.0,79,0.00,CLR,,0.00,WeatherDisplay:10.37,2013-01-17 02:49:00,
2013-01-16 21:54:00,64.2,57.6,30.16,West,270,0.0,0.0,79,0.00,CLR,,0.00,WeatherDisplay:10.37,2013-01-17 02:54:00,
2013-01-16 21:59:00,64.2,57.6,30.16,West,270,0.0,0.0,79,0.00,CLR,,0.00,WeatherDisplay:10.37,2013-01-17 02:59:00,
2013-01-16 22:04:00,63.0,56.3,30.16,SSE,158,0.0,0.0,79,0.00,CLR,,0.00,WeatherDisplay:10.37,2013-01-17 03:04:00,
2013-01-16 22:09:00,62.8,56.2,30.16,SE,135,0.0,0.0,79,0.00,CLR,,0.00,WeatherDisplay:10.37,2013-01-17 03:09:00,
2013-01-16 22:14:00,62.6,56.0,30.16,East,90,0.0,0.0,79,0.00,CLR,,0.00,WeatherDisplay:10.37,2013-01-17 03:14:00,
2013-01-16 22:19:00,62.2,56.0,30.16,SSE,158,0.0,0.0,80,0.00,CLR,,0.00,WeatherDisplay:10.37,2013-01-17 03:19:00,
2013-01-16 22:24:00,62.2,56.0,30.15,SE,135,0.5,0.5,80,0.00,CLR,,0.00,WeatherDisplay:10.37,2013-01-17 03:24:00,
2013-01-16 22:29:00,61.9,55.6,30.15,SE,135,0.0,0.0,80,0.00,CLR,,0.00,WeatherDisplay:10.37,2013-01-17 03:29:00,
2013-01-16 22:34:00,61.7,55.5,30.15,SE,135,0.0,0.0,80,0.00,CLR,,0.00,WeatherDisplay:10.37,2013-01-17 03:34:00,
2013-01-16 22:39:00,61.5,55.3,30.15,SSE,158,0.0,0.0,80,0.00,CLR,,0.00,WeatherDisplay:10.37,2013-01-17 03:39:00,
2013-01-16 22:44:00,61.3,55.5,30.15,WSW,248,0.2,0.2,81,0.00,CLR,,0.00,WeatherDisplay:10.37,2013-01-17 03:44:00,
2013-01-16 22:49:00,61.2,55.3,30.15,WNW,292,0.5,0.5,81,0.00,CLR,,0.00,WeatherDisplay:10.37,2013-01-17 03:49:00,
2013-01-16 22:54:00,61.2,55.3,30.15,NW,315,0.0,0.0,81,0.00,CLR,,0.00,WeatherDisplay:10.37,2013-01-17 03:54:00,
2013-01-16 22:59:00,61.0,55.1,30.15,SW,225,1.1,1.1,81,0.00,CLR,,0.00,WeatherDisplay:10.37,2013-01-17 03:59:00,
2013-01-16 23:04:00,60.8,54.9,30.14,SSE,158,1.1,1.1,81,0.00,CLR,,0.00,WeatherDisplay:10.37,2013-01-17 04:04:00,
2013-01-16 23:09:00,60.8,55.3,30.14,WSW,248,1.1,1.1,82,0.00,CLR,,0.00,WeatherDisplay:10.37,2013-01-17 04:09:00,
2013-01-16 23:14:00,60.8,55.3,30.15,SW,225,1.1,1.1,82,0.00,CLR,,0.00,WeatherDisplay:10.37,2013-01-17 04:14:00,
2013-01-16 23:19:00,60.8,55.6,30.14,SW,225,1.6,1.6,83,0.00,CLR,,0.00,WeatherDisplay:10.37,2013-01-17 04:19:00,
2013-01-16 23:24:00,60.8,55.6,30.14,SW,225,1.4,1.4,83,0.00,CLR,,0.00,WeatherDisplay:10.37,2013-01-17 04:24:00,
2013-01-16 23:29:00,60.8,55.6,30.14,SSW,202,2.3,2.3,83,0.00,CLR,,0.00,WeatherDisplay:10.37,2013-01-17 04:29:00,
2013-01-16 23:34:00,61.0,56.1,30.14,SSW,202,2.3,2.3,84,0.00,CLR,,0.00,WeatherDisplay:10.37,2013-01-17 04:34:00,
2013-01-16 23:39:00,61.0,56.4,30.14,SSW,202,1.1,1.1,85,0.00,CLR,,0.00,WeatherDisplay:10.37,2013-01-17 04:39:00,
2013-01-16 23:44:00,61.2,56.6,30.13,SW,225,1.4,1.4,85,0.00,CLR,,0.00,WeatherDisplay:10.37,2013-01-17 04:44:00,
2013-01-16 23:49:00,61.2,56.6,30.14,SSW,202,2.3,2.3,85,0.00,CLR,,0.00,WeatherDisplay:10.37,2013-01-17 04:49:00,
2013-01-16 23:54:00,61.2,56.6,30.14,South,180,2.3,2.3,85,0.00,CLR,,0.00,WeatherDisplay:10.37,2013-01-17 04:54:00,
2013-01-16 23:59:00,61.2,56.9,30.14,SSW,202,1.4,1.4,86,0.00,CLR,,0.00,WeatherDisplay:10.37,2013-01-17 04:59:00,